首页
METAR-TAF:

METAR-TAF

机场 :

Kinston Regional Jetport at Stallings Field

金斯顿, 北卡罗来纳州, 美国

纬度: 35-20N, 经度: 077-37W, 海拔: 29米

当前天气观测

该预报发布于57分钟前的19:56 UTC
风速6节,风向西
温度 30°C
湿度 66%
气压 1012 hPa
能見度: 16.1公里
散云层高于3200英尺
散云层高于3800英尺

METAR: KISO 061956Z 26006KT 10SM SCT032 SCT038 30/23 A2989

时间: 16:53 (20:53 UTC)

预报

该预报发布于3小时和3分钟前的17:50 UTC
预报有效从06日的 18点(UTC)到 07日的 18点(UTC)
风速8节,风向西
能見度: 10公里
多云层高于3500英尺
附近有阵雨
从 06日的 2000点(UTC)
风速8节,风向西,有时为13节阵风
能見度: 10公里
多云层高于3500英尺
从 06日的 2300点(UTC)
风速5节,风向西转西南
能見度: 10公里
多云层高于25000英尺
从 07日的 0800点(UTC)
风速7节,风向西
能見度: 10公里
散云层高于5000英尺

TAF: KISO 061750Z 0618/0718 26008KT P6SM VCSH BKN035 FM062000 26008G13KT P6SM BKN035 FM062300 25005KT P6SM BKN250 FM070800 28007KT P6SM SCT050 AMD LTD TO CLD VIS AND WIND

超过4000个机场的气象观测和天气预报(METAR&TAF报告)。

可查询的气象台以黄色和红色小点在地图上表示。

将鼠标移到小点上方,可查看气象台名称。

然后点击查看天气观测和预报。

如需切换地图:点击带黑十字的绿色按钮放大地图;点击带横线的绿色按钮缩小地图;或者点击绿色箭头查看邻近地区的地图。


METAR-TAF: